createdAt,value
2023-02-14T00:00:12.798Z,58.40
2023-02-14T00:02:39.367Z,61.13
2023-02-14T00:05:06.063Z,61.41
2023-02-14T00:07:32.415Z,61.04
2023-02-14T00:09:58.834Z,61.17
2023-02-14T00:12:25.300Z,64.33
2023-02-14T00:14:51.708Z,65.27
2023-02-14T00:17:18.207Z,64.82
2023-02-14T00:19:44.679Z,63.42
2023-02-14T00:22:11.144Z,63.30
2023-02-14T00:24:37.550Z,62.70
2023-02-14T00:27:03.963Z,62.76
2023-02-14T00:29:30.319Z,62.24
2023-02-14T00:31:56.895Z,60.89
2023-02-14T00:34:23.310Z,59.57
2023-02-14T00:36:49.717Z,59.59
2023-02-14T00:39:16.133Z,61.00
2023-02-14T00:41:42.559Z,61.37
2023-02-14T00:44:08.901Z,61.12
2023-02-14T00:46:35.341Z,62.07
2023-02-14T00:49:01.725Z,61.37
2023-02-14T00:51:28.088Z,61.35
2023-02-14T00:53:54.653Z,61.49
2023-02-14T00:56:21.031Z,61.87
2023-02-14T00:58:47.619Z,62.18
2023-02-14T01:01:17.113Z,62.20
2023-02-14T01:03:43.625Z,62.94
2023-02-14T01:06:10.056Z,62.70
2023-02-14T01:08:36.442Z,62.70
2023-02-14T01:11:02.872Z,61.41
2023-02-14T01:13:29.231Z,60.41
2023-02-14T01:15:55.638Z,59.61
2023-02-14T01:18:22.020Z,60.22
2023-02-14T01:20:48.566Z,61.02
2023-02-14T01:23:14.956Z,60.66
2023-02-14T01:25:41.430Z,60.91
2023-02-14T01:28:08.032Z,60.24
2023-02-14T01:30:34.440Z,60.74
2023-02-14T01:33:00.882Z,61.13
2023-02-14T01:35:27.323Z,61.81
2023-02-14T01:37:53.748Z,62.61
2023-02-14T01:40:20.158Z,62.78
2023-02-14T01:42:46.704Z,63.20
2023-02-14T01:45:13.145Z,62.52
2023-02-14T01:47:39.589Z,62.57
2023-02-14T01:50:06.031Z,61.25
2023-02-14T01:52:32.420Z,61.45
2023-02-14T01:54:58.781Z,60.88
2023-02-14T01:57:25.237Z,60.80
2023-02-14T01:59:51.611Z,60.55
2023-02-14T02:02:18.091Z,59.46
2023-02-14T02:04:44.566Z,59.17
2023-02-14T02:07:11.034Z,58.95
2023-02-14T02:09:37.501Z,59.03
2023-02-14T02:12:03.932Z,59.44
2023-02-14T02:14:30.452Z,60.57
2023-02-14T02:16:56.951Z,61.36
2023-02-14T02:19:23.420Z,61.32
2023-02-14T02:21:49.785Z,61.75
2023-02-14T02:24:16.190Z,62.40
2023-02-14T02:26:42.551Z,61.69
2023-02-14T02:29:08.954Z,61.35
2023-02-14T02:31:35.443Z,60.81
2023-02-14T02:34:01.950Z,60.82
2023-02-14T02:36:28.458Z,60.28
2023-02-14T02:38:54.881Z,60.32
2023-02-14T02:41:21.367Z,60.34
2023-02-14T02:43:47.752Z,62.04
2023-02-14T02:46:14.178Z,63.52
2023-02-14T02:48:40.592Z,63.98
2023-02-14T02:51:07.662Z,64.91
2023-02-14T02:53:34.117Z,65.96
2023-02-14T02:56:00.570Z,65.20
2023-02-14T02:58:27.020Z,64.16
2023-02-14T03:00:53.534Z,64.26
2023-02-14T03:03:19.953Z,63.47
2023-02-14T03:05:46.354Z,64.34
2023-02-14T03:08:12.835Z,65.60
2023-02-14T03:10:39.350Z,66.25
2023-02-14T03:13:06.829Z,66.13
2023-02-14T03:15:33.278Z,66.17
2023-02-14T03:17:59.730Z,66.01
2023-02-14T03:20:26.123Z,64.83
2023-02-14T03:22:52.462Z,64.36
2023-02-14T03:25:18.982Z,63.79
2023-02-14T03:27:45.404Z,63.07
2023-02-14T03:30:11.916Z,64.16
2023-02-14T03:32:38.468Z,63.62
2023-02-14T03:35:04.969Z,63.72
2023-02-14T03:37:31.385Z,62.91
2023-02-14T03:39:57.836Z,62.13
2023-02-14T03:42:24.189Z,62.41
2023-02-14T03:44:50.676Z,62.29
2023-02-14T03:47:17.136Z,61.58
2023-02-14T03:49:43.537Z,61.40
2023-02-14T03:52:10.237Z,61.17
2023-02-14T03:54:36.697Z,61.36
2023-02-14T03:57:03.227Z,61.35
2023-02-14T03:59:29.661Z,61.54
2023-02-14T04:01:56.149Z,61.27
2023-02-14T04:04:22.639Z,60.94
2023-02-14T04:06:49.073Z,60.95
2023-02-14T04:09:15.517Z,61.31
2023-02-14T04:11:42.034Z,61.18
2023-02-14T04:14:08.475Z,62.00
2023-02-14T04:16:34.865Z,62.37
2023-02-14T04:19:01.239Z,62.06
2023-02-14T04:21:27.677Z,60.95
2023-02-14T04:23:54.230Z,59.86
2023-02-14T04:26:22.673Z,60.05
2023-02-14T04:28:49.025Z,61.13
2023-02-14T04:31:15.479Z,61.79
2023-02-14T04:33:41.893Z,62.85
2023-02-14T04:36:08.301Z,62.92
2023-02-14T04:38:34.689Z,63.19
2023-02-14T04:41:03.247Z,63.22
2023-02-14T04:43:29.709Z,63.37
2023-02-14T04:45:56.155Z,62.30
2023-02-14T04:48:22.551Z,61.80
2023-02-14T04:50:49.006Z,61.21
2023-02-14T04:53:15.472Z,61.45
2023-02-14T04:55:41.950Z,61.24
2023-02-14T04:58:08.361Z,61.06
2023-02-14T05:00:34.832Z,61.85
2023-02-14T05:03:01.230Z,61.97
2023-02-14T05:05:27.603Z,62.27
2023-02-14T05:07:54.008Z,62.68
2023-02-14T05:10:20.406Z,62.65
2023-02-14T05:12:47.014Z,62.98
2023-02-14T05:15:13.617Z,62.47
2023-02-14T05:17:40.042Z,62.26
2023-02-14T05:20:06.445Z,61.55
2023-02-14T05:22:32.913Z,61.17
2023-02-14T05:24:59.339Z,60.79
2023-02-14T05:27:25.757Z,60.74
2023-02-14T05:29:52.141Z,60.72
2023-02-14T05:32:18.547Z,61.19
2023-02-14T05:34:44.950Z,61.31
2023-02-14T05:37:11.339Z,61.75
2023-02-14T05:39:37.799Z,61.83
2023-02-14T05:42:05.462Z,62.12
2023-02-14T05:44:31.835Z,62.80
2023-02-14T05:46:58.213Z,62.67
2023-02-14T05:49:24.683Z,62.60
2023-02-14T05:51:51.115Z,63.13
2023-02-14T05:54:17.501Z,62.86
2023-02-14T05:56:43.876Z,62.24
2023-02-14T05:59:10.376Z,61.35
2023-02-14T06:01:36.785Z,61.47
2023-02-14T06:04:03.306Z,61.52
2023-02-14T06:06:29.746Z,63.25
2023-02-14T06:08:56.223Z,63.53
2023-02-14T06:11:22.656Z,63.56
2023-02-14T06:13:51.074Z,63.54
2023-02-14T06:16:17.498Z,64.17
2023-02-14T06:18:43.944Z,63.79
2023-02-14T06:21:10.331Z,64.19
2023-02-14T06:23:36.688Z,63.73
2023-02-14T06:26:03.117Z,63.69
2023-02-14T06:28:29.545Z,63.10
2023-02-14T06:30:55.996Z,63.46
2023-02-14T06:33:22.494Z,64.13
2023-02-14T06:35:48.972Z,63.64
2023-02-14T06:38:15.368Z,62.94
2023-02-14T06:40:41.888Z,62.92
2023-02-14T06:43:09.282Z,62.99
2023-02-14T06:45:35.729Z,63.94
2023-02-14T06:48:06.701Z,64.43
2023-02-14T06:50:35.328Z,65.57
2023-02-14T06:53:02.030Z,65.50
2023-02-14T06:55:28.497Z,66.03
2023-02-14T06:57:55.008Z,66.49
2023-02-14T07:00:21.458Z,66.24
2023-02-14T07:02:49.183Z,66.23
2023-02-14T07:05:15.622Z,66.14
2023-02-14T07:07:42.112Z,66.71
2023-02-14T07:10:08.522Z,66.64
2023-02-14T07:12:34.961Z,66.83
2023-02-14T07:15:01.495Z,67.26
2023-02-14T07:17:27.935Z,67.28
2023-02-14T07:19:54.412Z,67.21
2023-02-14T07:22:20.873Z,66.98
2023-02-14T07:24:47.297Z,67.12
2023-02-14T07:27:23.887Z,66.27
2023-02-14T07:29:50.328Z,66.41
2023-02-14T07:32:17.831Z,66.02
2023-02-14T07:34:44.330Z,66.85
2023-02-14T07:37:10.715Z,67.13
2023-02-14T07:39:37.308Z,66.85
2023-02-14T07:42:03.761Z,67.28
2023-02-14T07:44:30.399Z,66.94
2023-02-14T07:46:56.925Z,66.58
2023-02-14T07:49:23.377Z,67.19
2023-02-14T07:51:49.813Z,66.32
2023-02-14T07:54:16.285Z,66.31
2023-02-14T07:56:42.917Z,65.87
2023-02-14T07:59:09.302Z,65.16
2023-02-14T08:01:42.940Z,64.82
2023-02-14T08:04:09.362Z,65.92
2023-02-14T08:06:35.823Z,66.73
2023-02-14T08:09:05.275Z,68.16
2023-02-14T08:11:33.500Z,68.81
2023-02-14T08:14:00.101Z,68.76
2023-02-14T08:16:26.717Z,68.87
2023-02-14T08:18:53.263Z,68.02
2023-02-14T08:21:19.793Z,67.72
2023-02-14T08:23:47.620Z,66.56
2023-02-14T08:26:14.149Z,65.11
2023-02-14T08:28:40.597Z,64.71
2023-02-14T08:31:07.109Z,64.38
2023-02-14T08:33:33.671Z,66.12
2023-02-14T08:36:00.193Z,67.03
2023-02-14T08:38:26.742Z,67.27
2023-02-14T08:40:57.119Z,67.14
2023-02-14T08:43:23.684Z,67.20
2023-02-14T08:45:52.281Z,66.72
2023-02-14T08:48:18.864Z,65.72
2023-02-14T08:50:45.370Z,65.15
2023-02-14T08:53:11.850Z,64.93
2023-02-14T08:55:38.338Z,64.07
2023-02-14T08:58:04.825Z,63.52
2023-02-14T09:00:31.651Z,63.07
2023-02-14T09:02:58.197Z,63.40
2023-02-14T09:05:24.717Z,63.70
2023-02-14T09:07:51.527Z,64.22
2023-02-14T09:10:18.168Z,63.45
2023-02-14T09:12:44.725Z,63.48
2023-02-14T09:15:11.391Z,63.79
2023-02-14T09:17:37.926Z,64.17
2023-02-14T09:20:04.416Z,63.69
2023-02-14T09:22:30.959Z,63.81
2023-02-14T09:24:57.484Z,63.91
2023-02-14T09:27:23.987Z,63.60
2023-02-14T09:29:50.491Z,63.96
2023-02-14T09:32:17.034Z,63.78
2023-02-14T09:34:45.786Z,63.49
2023-02-14T09:37:12.308Z,62.85
2023-02-14T09:39:38.830Z,62.64
2023-02-14T09:42:05.377Z,63.20
2023-02-14T09:44:31.879Z,63.15
2023-02-14T09:46:58.336Z,64.08
2023-02-14T09:49:24.967Z,66.20
2023-02-14T09:51:51.636Z,66.03
2023-02-14T09:54:18.178Z,67.87
2023-02-14T09:56:51.210Z,68.69
2023-02-14T09:59:18.332Z,68.53
2023-02-14T10:01:44.972Z,68.93
2023-02-14T10:04:11.527Z,68.86
2023-02-14T10:06:38.049Z,69.07
2023-02-14T10:09:05.437Z,69.33
2023-02-14T10:11:31.850Z,69.12
2023-02-14T10:13:58.401Z,68.13
2023-02-14T10:16:26.872Z,67.16
2023-02-14T10:18:53.862Z,67.71
2023-02-14T10:21:21.335Z,68.64
2023-02-14T10:23:47.990Z,68.57
2023-02-14T10:26:14.452Z,69.16
2023-02-14T10:28:41.037Z,68.54
2023-02-14T10:31:13.786Z,69.40
2023-02-14T10:33:40.260Z,69.31
2023-02-14T10:36:06.800Z,68.80
2023-02-14T10:38:33.272Z,69.11
2023-02-14T10:40:59.982Z,69.35
2023-02-14T10:43:26.665Z,69.75
2023-02-14T10:45:53.145Z,69.58
2023-02-14T10:48:19.808Z,69.66
2023-02-14T10:50:46.465Z,70.47
2023-02-14T10:53:12.998Z,70.54
2023-02-14T10:55:41.551Z,70.21
2023-02-14T10:58:08.204Z,70.40
2023-02-14T11:00:34.773Z,70.10
2023-02-14T11:03:01.328Z,70.24
2023-02-14T11:05:27.884Z,70.73
2023-02-14T11:07:54.395Z,70.67
2023-02-14T11:10:20.947Z,71.34
2023-02-14T11:12:47.909Z,71.19
2023-02-14T11:15:14.382Z,71.10
2023-02-14T11:17:40.970Z,70.08
2023-02-14T11:22:47.824Z,69.87
2023-02-14T11:25:14.339Z,70.28
2023-02-14T11:27:40.833Z,71.54
2023-02-14T11:30:07.354Z,71.64
2023-02-14T11:32:33.800Z,71.81
2023-02-14T11:35:00.289Z,70.77
2023-02-14T11:37:26.828Z,71.16
2023-02-14T11:39:53.322Z,69.86
2023-02-14T11:42:19.764Z,70.30
2023-02-14T11:44:46.367Z,70.42
2023-02-14T11:47:12.899Z,69.79
2023-02-14T11:49:39.548Z,69.63
2023-02-14T11:52:06.054Z,70.70
2023-02-14T11:54:32.561Z,70.59
2023-02-14T11:56:58.983Z,70.66
2023-02-14T11:59:26.527Z,70.26
2023-02-14T12:01:53.102Z,69.59
2023-02-14T12:04:19.669Z,70.07
2023-02-14T12:06:46.150Z,69.86
2023-02-14T12:09:12.797Z,70.03
2023-02-14T12:14:29.892Z,70.69
2023-02-14T12:16:56.381Z,70.62
2023-02-14T12:19:22.849Z,71.15
2023-02-14T12:21:49.290Z,71.24
2023-02-14T12:24:15.906Z,70.89
2023-02-14T12:26:42.538Z,70.83
2023-02-14T12:29:09.048Z,70.72
2023-02-14T12:31:35.570Z,70.23
2023-02-14T12:34:02.101Z,70.69
2023-02-14T12:36:28.569Z,70.38
2023-02-14T12:38:55.089Z,70.16
2023-02-14T12:41:22.955Z,70.35
2023-02-14T12:43:49.482Z,70.54
2023-02-14T12:46:15.952Z,70.22
2023-02-14T12:48:42.412Z,70.63
2023-02-14T12:51:08.803Z,69.77
2023-02-14T12:53:35.217Z,70.12
2023-02-14T12:56:01.755Z,70.13
2023-02-14T12:58:28.114Z,69.88
2023-02-14T13:03:44.813Z,68.66
2023-02-14T13:06:13.110Z,68.63
2023-02-14T13:08:39.617Z,67.63
2023-02-14T13:11:06.405Z,68.11
2023-02-14T13:13:33.221Z,68.92
2023-02-14T13:15:59.792Z,68.13
2023-02-14T13:18:26.696Z,67.98
2023-02-14T13:20:53.692Z,67.64
2023-02-14T13:23:20.162Z,67.75
2023-02-14T13:25:46.661Z,67.42
2023-02-14T13:28:13.080Z,67.94
2023-02-14T13:30:39.730Z,68.11
2023-02-14T13:33:06.222Z,67.36
2023-02-14T13:35:32.676Z,68.00
2023-02-14T13:37:59.132Z,67.41
2023-02-14T13:40:25.587Z,67.43
2023-02-14T13:42:52.090Z,67.33
2023-02-14T13:45:18.544Z,68.12
2023-02-14T13:47:45.041Z,68.01
2023-02-14T13:53:01.748Z,67.97
2023-02-14T13:55:28.430Z,67.92
2023-02-14T13:57:54.934Z,67.07
2023-02-14T14:00:21.371Z,67.24
2023-02-14T14:02:47.909Z,67.04
2023-02-14T14:05:15.468Z,68.14
2023-02-14T14:07:42.569Z,67.69
2023-02-14T14:10:09.032Z,68.09
2023-02-14T14:12:35.525Z,67.97
2023-02-14T14:15:02.049Z,67.82
2023-02-14T14:17:37.544Z,67.22
2023-02-14T14:20:05.115Z,66.36
2023-02-14T14:22:31.619Z,66.34
2023-02-14T14:24:58.086Z,66.08
2023-02-14T14:27:24.630Z,66.05
2023-02-14T14:29:53.040Z,66.91
2023-02-14T14:32:19.528Z,66.15
2023-02-14T14:34:47.000Z,66.18
2023-02-14T14:37:13.392Z,66.22
2023-02-14T14:39:39.854Z,66.61
2023-02-14T14:42:07.033Z,66.45
2023-02-14T14:44:33.607Z,66.51
2023-02-14T14:47:00.193Z,65.58
2023-02-14T14:49:26.571Z,65.41
2023-02-14T14:51:53.027Z,64.26
2023-02-14T14:54:19.442Z,63.80
2023-02-14T14:56:45.810Z,65.48
2023-02-14T14:59:12.214Z,65.16
2023-02-14T15:01:38.633Z,65.12
2023-02-14T15:04:05.054Z,65.57
2023-02-14T15:06:40.357Z,65.58
2023-02-14T15:09:06.833Z,64.98
2023-02-14T15:11:33.209Z,65.09
2023-02-14T15:13:59.700Z,64.18
2023-02-14T15:16:26.159Z,64.05
2023-02-14T15:18:52.706Z,63.77
2023-02-14T15:21:23.464Z,62.93
2023-02-14T15:26:35.844Z,62.94
2023-02-14T15:29:07.182Z,63.68
2023-02-14T15:31:33.656Z,63.51
2023-02-14T15:34:00.267Z,63.25
2023-02-14T15:36:26.676Z,63.40
2023-02-14T15:38:53.139Z,63.40
2023-02-14T15:41:19.586Z,63.02
2023-02-14T15:43:46.197Z,63.72
2023-02-14T15:46:12.759Z,62.88
2023-02-14T15:48:39.246Z,63.40
2023-02-14T15:51:05.880Z,62.93
2023-02-14T15:53:32.379Z,62.84
2023-02-14T15:55:58.849Z,62.94
2023-02-14T15:58:26.292Z,62.42
2023-02-14T16:00:52.633Z,62.58
2023-02-14T16:03:19.650Z,62.34
2023-02-14T16:05:49.773Z,63.05
2023-02-14T16:08:16.307Z,62.31
2023-02-14T16:10:42.703Z,61.81
2023-02-14T16:13:09.261Z,61.25
2023-02-14T16:15:35.819Z,61.50
2023-02-14T16:18:02.249Z,61.72
2023-02-14T16:20:28.730Z,61.35
2023-02-14T16:22:55.267Z,60.59
2023-02-14T16:25:21.752Z,61.22
2023-02-14T16:27:48.269Z,61.25
2023-02-14T16:30:14.795Z,61.15
2023-02-14T16:32:41.340Z,61.09
2023-02-14T16:35:07.809Z,61.17
2023-02-14T16:37:34.392Z,60.14
2023-02-14T16:40:00.906Z,60.71
2023-02-14T16:42:27.451Z,60.69
2023-02-14T16:44:53.976Z,60.89
2023-02-14T16:47:20.570Z,61.34
2023-02-14T16:49:47.062Z,61.66
2023-02-14T16:52:13.497Z,61.33
2023-02-14T16:57:20.304Z,61.28
2023-02-14T16:59:46.723Z,61.90
2023-02-14T17:02:13.148Z,61.86
2023-02-14T17:04:39.598Z,61.75
2023-02-14T17:07:06.059Z,61.73
2023-02-14T17:09:32.430Z,61.79
2023-02-14T17:11:58.915Z,61.53
2023-02-14T17:14:25.631Z,62.12
2023-02-14T17:16:56.582Z,61.64
2023-02-14T17:19:23.000Z,61.41
2023-02-14T17:21:49.480Z,60.92
2023-02-14T17:24:15.979Z,60.73
2023-02-14T17:26:42.450Z,60.64
2023-02-14T17:29:08.862Z,61.03
2023-02-14T17:31:35.500Z,61.35
2023-02-14T17:34:01.953Z,61.31
2023-02-14T17:36:28.431Z,61.18
2023-02-14T17:38:54.913Z,61.66
2023-02-14T17:41:26.974Z,62.53
2023-02-14T17:43:53.371Z,63.12
2023-02-14T17:46:19.838Z,63.67
2023-02-14T17:48:46.230Z,63.71
2023-02-14T17:54:03.183Z,64.05
2023-02-14T17:56:29.639Z,63.43
2023-02-14T17:58:56.239Z,62.81
2023-02-14T18:01:22.767Z,62.56
2023-02-14T18:03:49.290Z,63.45
2023-02-14T18:06:15.769Z,63.76
2023-02-14T18:08:42.265Z,63.20
2023-02-14T18:11:08.722Z,61.12
2023-02-14T18:13:35.151Z,60.26
2023-02-14T18:16:01.599Z,60.38
2023-02-14T18:18:35.294Z,60.59
2023-02-14T18:21:02.141Z,60.66
2023-02-14T18:23:28.835Z,60.30
2023-02-14T18:25:55.715Z,60.78
2023-02-14T18:28:24.013Z,60.41
2023-02-14T18:30:53.512Z,59.31
2023-02-14T18:33:24.122Z,58.75
2023-02-14T18:35:51.961Z,59.06
2023-02-14T18:38:21.406Z,59.85
2023-02-14T18:40:47.860Z,59.50
2023-02-14T18:43:16.772Z,60.63
2023-02-14T18:45:43.280Z,60.05
2023-02-14T18:48:09.711Z,59.89
2023-02-14T18:50:36.175Z,59.53
2023-02-14T18:53:02.723Z,59.34
2023-02-14T18:55:34.414Z,59.85
2023-02-14T18:58:00.907Z,60.50
2023-02-14T19:00:33.242Z,61.21
2023-02-14T19:02:59.785Z,62.53
2023-02-14T19:05:26.295Z,61.64
2023-02-14T19:07:52.699Z,60.76
2023-02-14T19:10:19.172Z,62.71
2023-02-14T19:12:45.639Z,62.96
2023-02-14T19:15:12.076Z,61.99
2023-02-14T19:17:38.504Z,61.47
2023-02-14T19:20:04.919Z,61.05
2023-02-14T19:22:31.562Z,61.05
2023-02-14T19:24:58.006Z,61.36
2023-02-14T19:27:32.078Z,62.65
2023-02-14T19:29:59.407Z,62.68
2023-02-14T19:32:25.797Z,64.55
2023-02-14T19:34:52.564Z,64.12
2023-02-14T19:37:19.039Z,63.41
2023-02-14T19:39:45.428Z,62.98
2023-02-14T19:42:14.023Z,63.07
2023-02-14T19:44:40.448Z,63.93
2023-02-14T19:47:23.335Z,63.42
2023-02-14T19:49:50.037Z,63.71
2023-02-14T19:52:25.817Z,63.12
2023-02-14T19:54:53.142Z,63.41
2023-02-14T19:57:19.604Z,63.60
2023-02-14T19:59:46.164Z,63.38
2023-02-14T20:02:12.615Z,62.92
2023-02-14T20:04:39.066Z,62.36
2023-02-14T20:07:05.534Z,62.03
2023-02-14T20:09:31.972Z,61.53
2023-02-14T20:11:58.503Z,61.34
2023-02-14T20:14:24.918Z,62.82
2023-02-14T20:16:51.471Z,63.02
2023-02-14T20:19:18.001Z,63.10
2023-02-14T20:21:44.424Z,63.66
2023-02-14T20:24:10.950Z,64.32
2023-02-14T20:26:39.860Z,64.03
2023-02-14T20:29:06.390Z,63.91
2023-02-14T20:31:33.040Z,63.88
2023-02-14T20:33:59.576Z,63.97
2023-02-14T20:36:25.976Z,64.89
2023-02-14T20:38:53.128Z,64.75
2023-02-14T20:41:19.643Z,64.12
2023-02-14T20:43:46.271Z,63.31
2023-02-14T20:46:13.819Z,62.82
2023-02-14T20:48:47.690Z,62.14
2023-02-14T20:51:16.423Z,60.13
2023-02-14T20:53:47.573Z,58.07
2023-02-14T20:56:14.010Z,56.92
2023-02-14T20:58:40.446Z,57.34
2023-02-14T21:01:07.061Z,57.45
2023-02-14T21:03:33.546Z,57.29
2023-02-14T21:06:00.016Z,57.28
2023-02-14T21:08:27.536Z,56.81
2023-02-14T21:10:53.918Z,56.59
2023-02-14T21:13:20.418Z,55.91
2023-02-14T21:15:46.957Z,55.19
2023-02-14T21:18:14.041Z,54.33
2023-02-14T21:20:40.446Z,55.29
2023-02-14T21:23:06.850Z,55.51
2023-02-14T21:25:33.327Z,56.55
2023-02-14T21:27:59.743Z,57.00
2023-02-14T21:30:26.305Z,59.14
2023-02-14T21:32:52.828Z,60.35
2023-02-14T21:35:23.404Z,60.94
2023-02-14T21:37:52.329Z,60.76
2023-02-14T21:40:18.881Z,60.93
2023-02-14T21:42:46.522Z,60.28
2023-02-14T21:45:13.030Z,60.34
2023-02-14T21:47:39.486Z,60.66
2023-02-14T21:50:06.251Z,59.83
2023-02-14T21:52:32.713Z,59.48
2023-02-14T21:54:59.126Z,59.45
2023-02-14T21:57:25.594Z,59.74
2023-02-14T21:59:51.982Z,59.20
2023-02-14T22:02:18.527Z,59.11
2023-02-14T22:04:45.927Z,58.97
2023-02-14T22:07:12.351Z,59.66
2023-02-14T22:09:38.795Z,60.76
2023-02-14T22:12:05.276Z,62.54
2023-02-14T22:14:31.739Z,62.34
2023-02-14T22:16:58.180Z,61.64
2023-02-14T22:19:24.651Z,61.22
2023-02-14T22:21:51.139Z,61.57
2023-02-14T22:24:17.611Z,61.88
2023-02-14T22:26:44.041Z,61.75
2023-02-14T22:29:10.536Z,61.79
2023-02-14T22:31:37.047Z,60.97
2023-02-14T22:34:03.563Z,61.99
2023-02-14T22:36:29.974Z,61.27
2023-02-14T22:38:56.353Z,60.84
2023-02-14T22:41:22.728Z,61.59
2023-02-14T22:43:49.163Z,61.73
2023-02-14T22:46:23.097Z,61.29
2023-02-14T22:48:49.527Z,61.76
2023-02-14T22:51:15.962Z,62.56
2023-02-14T22:53:42.332Z,61.06
2023-02-14T22:56:08.830Z,59.50
2023-02-14T22:58:35.968Z,60.12
2023-02-14T23:01:02.330Z,59.33
2023-02-14T23:03:28.707Z,59.80
2023-02-14T23:05:55.101Z,59.95
2023-02-14T23:08:21.534Z,60.46
2023-02-14T23:10:47.995Z,59.22
2023-02-14T23:13:16.573Z,59.17
2023-02-14T23:15:42.985Z,58.41
2023-02-14T23:18:09.337Z,58.28
2023-02-14T23:20:36.174Z,57.65
2023-02-14T23:23:02.996Z,58.29
2023-02-14T23:25:30.740Z,58.85
2023-02-14T23:28:04.804Z,59.18
2023-02-14T23:30:31.208Z,59.68
2023-02-14T23:33:01.436Z,60.30
2023-02-14T23:35:27.844Z,59.87
2023-02-14T23:40:34.750Z,61.33
2023-02-14T23:43:01.216Z,61.88
2023-02-14T23:48:07.918Z,60.91
2023-02-14T23:50:34.410Z,60.53
2023-02-14T23:53:00.966Z,60.21
2023-02-14T23:55:27.353Z,59.63
2023-02-14T23:57:53.826Z,60.00
